createdAt,value
2022-11-17T00:02:05.128Z,18.98
2022-11-17T00:04:52.321Z,16.98
2022-11-17T00:07:39.325Z,17.65
2022-11-17T00:10:26.301Z,17.60
2022-11-17T00:13:32.146Z,17.65
2022-11-17T00:16:21.369Z,19.50
2022-11-17T00:19:27.489Z,19.75
2022-11-17T00:22:14.488Z,20.02
2022-11-17T00:25:01.418Z,20.50
2022-11-17T00:27:48.603Z,20.33
2022-11-17T00:30:54.077Z,19.83
2022-11-17T00:33:59.827Z,20.08
2022-11-17T00:36:52.314Z,18.77
2022-11-17T00:39:39.504Z,20.25
2022-11-17T00:42:26.425Z,19.25
2022-11-17T00:45:13.533Z,18.30
2022-11-17T00:48:00.484Z,17.80
2022-11-17T00:50:47.648Z,19.58
2022-11-17T00:53:34.908Z,19.73
2022-11-17T00:56:22.113Z,17.83
2022-11-17T00:59:09.025Z,21.10
2022-11-17T01:01:56.044Z,19.42
2022-11-17T01:04:43.012Z,18.48
2022-11-17T01:07:29.993Z,16.42
2022-11-17T01:10:17.025Z,16.27
2022-11-17T01:13:04.228Z,16.90
2022-11-17T01:15:51.176Z,17.20
2022-11-17T01:18:39.373Z,18.35
2022-11-17T01:21:28.180Z,20.40
2022-11-17T01:24:17.116Z,19.88
2022-11-17T01:27:04.036Z,18.15
2022-11-17T01:29:51.008Z,19.05
2022-11-17T01:32:38.136Z,20.17
2022-11-17T01:35:25.136Z,19.63
2022-11-17T01:38:12.079Z,19.83
2022-11-17T01:41:01.213Z,20.02
2022-11-17T01:43:57.007Z,19.88
2022-11-17T01:46:44.184Z,19.05
2022-11-17T01:49:32.357Z,21.08
2022-11-17T01:52:19.423Z,21.45
2022-11-17T01:55:08.724Z,20.65
2022-11-17T01:58:01.002Z,21.40
2022-11-17T02:00:49.020Z,21.05
2022-11-17T02:03:37.123Z,22.20
2022-11-17T02:06:31.206Z,21.45
2022-11-17T02:09:19.185Z,21.73
2022-11-17T02:12:09.211Z,22.63
2022-11-17T02:14:56.192Z,24.02
2022-11-17T02:17:43.966Z,22.23
2022-11-17T02:21:12.262Z,23.65
2022-11-17T02:24:56.434Z,23.23
2022-11-17T02:28:23.912Z,22.65
2022-11-17T02:31:35.445Z,23.48
2022-11-17T02:34:44.855Z,24.60
2022-11-17T02:38:17.306Z,20.63
2022-11-17T02:41:23.107Z,23.35
2022-11-17T02:44:21.459Z,25.05
2022-11-17T02:47:18.043Z,23.60
2022-11-17T02:50:07.919Z,21.92
2022-11-17T02:52:55.333Z,21.25
2022-11-17T02:55:50.208Z,22.90
2022-11-17T02:58:37.180Z,20.60
2022-11-17T03:01:52.133Z,21.73
2022-11-17T03:05:09.836Z,21.73
2022-11-17T03:08:42.593Z,22.98
2022-11-17T03:11:52.813Z,21.40
2022-11-17T03:15:16.991Z,20.90
2022-11-17T03:18:15.105Z,21.88
2022-11-17T03:21:21.504Z,22.38
2022-11-17T03:24:18.185Z,20.80
2022-11-17T03:27:12.717Z,21.80
2022-11-17T03:30:07.018Z,24.05
2022-11-17T03:33:00.077Z,22.60
2022-11-17T03:35:57.195Z,22.52
2022-11-17T03:38:54.212Z,22.40
2022-11-17T03:41:45.200Z,21.95
2022-11-17T03:44:36.773Z,21.92
2022-11-17T03:47:26.873Z,22.23
2022-11-17T03:50:37.452Z,22.77
2022-11-17T03:53:24.619Z,21.35
2022-11-17T03:57:01.028Z,22.73
2022-11-17T03:59:59.459Z,22.30
2022-11-17T04:02:48.809Z,21.48
2022-11-17T04:05:35.747Z,21.08
2022-11-17T04:08:25.848Z,22.85
2022-11-17T04:11:31.309Z,20.88
2022-11-17T04:14:37.021Z,19.88
2022-11-17T04:17:24.102Z,21.75
2022-11-17T04:20:11.538Z,21.13
2022-11-17T04:23:07.595Z,22.10
2022-11-17T04:26:14.512Z,21.70
2022-11-17T04:29:01.643Z,19.92
2022-11-17T04:31:48.778Z,22.05
2022-11-17T04:34:35.812Z,22.60
2022-11-17T04:37:22.925Z,21.65
2022-11-17T04:40:10.779Z,19.98
2022-11-17T04:42:57.890Z,20.98
2022-11-17T04:45:44.873Z,21.17
2022-11-17T04:48:32.080Z,20.73
2022-11-17T04:51:19.098Z,22.65
2022-11-17T04:54:08.225Z,20.80
2022-11-17T04:56:55.830Z,18.83
2022-11-17T04:59:42.917Z,16.20
2022-11-17T05:02:29.914Z,15.60
2022-11-17T05:05:17.180Z,15.38
2022-11-17T05:08:04.509Z,14.07
2022-11-17T05:11:10.235Z,12.18
2022-11-17T05:13:57.493Z,11.73
2022-11-17T05:17:08.979Z,10.50
2022-11-17T05:19:56.925Z,10.60
2022-11-17T05:23:06.804Z,9.65
2022-11-17T05:25:54.056Z,10.90
2022-11-17T05:28:42.480Z,10.85
2022-11-17T05:31:29.963Z,10.23
2022-11-17T05:34:17.823Z,10.60
2022-11-17T05:37:04.821Z,11.02
2022-11-17T05:39:51.707Z,10.73
2022-11-17T05:42:38.701Z,11.70
2022-11-17T05:45:25.821Z,11.10
2022-11-17T05:48:12.872Z,11.90
2022-11-17T05:51:00.896Z,14.30
2022-11-17T05:53:48.433Z,16.58
2022-11-17T05:56:59.796Z,22.95
2022-11-17T05:59:55.536Z,19.77
2022-11-17T06:02:55.397Z,20.70
2022-11-17T06:05:43.321Z,21.33
2022-11-17T06:08:31.621Z,19.85
2022-11-17T06:11:19.418Z,19.15
2022-11-17T06:14:06.464Z,19.73
2022-11-17T06:16:58.896Z,19.55
2022-11-17T06:19:50.674Z,22.48
2022-11-17T06:22:37.707Z,19.35
2022-11-17T06:25:24.708Z,22.95
2022-11-17T06:28:15.245Z,22.15
2022-11-17T06:31:02.717Z,18.10
2022-11-17T06:33:49.769Z,21.00
2022-11-17T06:36:37.016Z,20.25
2022-11-17T06:39:24.181Z,19.73
2022-11-17T06:42:11.400Z,18.65
2022-11-17T06:44:58.314Z,17.83
2022-11-17T06:47:45.220Z,19.70
2022-11-17T06:50:32.616Z,19.58
2022-11-17T06:53:22.936Z,18.88
2022-11-17T06:56:10.897Z,20.17
2022-11-17T06:58:59.119Z,19.67
2022-11-17T07:01:46.326Z,19.83
2022-11-17T07:04:33.478Z,20.85
2022-11-17T07:07:20.493Z,19.35
2022-11-17T07:10:08.437Z,20.52
2022-11-17T07:12:55.511Z,20.42
2022-11-17T07:15:42.640Z,20.73
2022-11-17T07:18:29.659Z,21.45
2022-11-17T07:21:16.663Z,19.88
2022-11-17T07:24:04.366Z,20.08
2022-11-17T07:26:51.459Z,20.38
2022-11-17T07:29:38.428Z,20.08
2022-11-17T07:32:25.516Z,19.83
2022-11-17T07:35:12.719Z,19.60
2022-11-17T07:38:01.463Z,19.35
2022-11-17T07:40:48.495Z,19.67
2022-11-17T07:43:36.358Z,16.80
2022-11-17T07:46:23.619Z,17.38
2022-11-17T07:49:10.771Z,17.73
2022-11-17T07:51:57.888Z,16.70
2022-11-17T07:54:44.890Z,16.10
2022-11-17T07:57:33.955Z,15.98
2022-11-17T08:00:21.296Z,17.17
2022-11-17T08:03:10.014Z,16.63
2022-11-17T08:05:57.779Z,17.02
2022-11-17T08:08:45.144Z,16.95
2022-11-17T08:11:32.286Z,16.52
2022-11-17T08:14:19.347Z,16.33
2022-11-17T08:17:06.287Z,15.95
2022-11-17T08:19:53.573Z,17.05
2022-11-17T08:22:40.713Z,14.98
2022-11-17T08:25:28.196Z,15.98
2022-11-17T08:28:15.117Z,15.75
2022-11-17T08:31:04.281Z,15.02
2022-11-17T08:33:51.389Z,15.38
2022-11-17T08:36:38.650Z,16.60
2022-11-17T08:39:25.582Z,15.93
2022-11-17T08:42:12.794Z,14.07
2022-11-17T08:45:00.467Z,13.80
2022-11-17T08:47:47.483Z,14.13
2022-11-17T08:50:35.188Z,14.20
2022-11-17T08:53:23.539Z,14.05
2022-11-17T08:56:12.476Z,14.73
2022-11-17T08:58:59.427Z,14.38
2022-11-17T09:01:47.525Z,13.13
2022-11-17T09:04:34.782Z,14.25
2022-11-17T09:07:22.034Z,14.23
2022-11-17T09:10:11.166Z,12.00
2022-11-17T09:12:58.629Z,14.13
2022-11-17T09:15:45.834Z,14.60
2022-11-17T09:18:34.269Z,14.50
2022-11-17T09:21:21.526Z,16.05
2022-11-17T09:24:08.779Z,14.68
2022-11-17T09:26:57.493Z,14.55
2022-11-17T09:29:44.729Z,15.15
2022-11-17T09:32:35.613Z,14.70
2022-11-17T09:35:22.814Z,14.48
2022-11-17T09:38:10.058Z,16.55
2022-11-17T09:40:58.522Z,14.70
2022-11-17T09:44:17.609Z,15.18
2022-11-17T09:47:27.106Z,13.88
2022-11-17T09:50:31.258Z,13.95
2022-11-17T09:53:29.319Z,12.32
2022-11-17T09:56:17.247Z,13.88
2022-11-17T09:59:06.264Z,13.88
2022-11-17T10:01:53.721Z,12.50
2022-11-17T10:04:40.986Z,12.55
2022-11-17T10:07:31.633Z,13.52
2022-11-17T10:10:31.385Z,12.60
2022-11-17T10:13:32.346Z,12.65
2022-11-17T10:16:19.662Z,12.15
2022-11-17T10:19:33.806Z,12.68
2022-11-17T10:22:39.194Z,12.80
2022-11-17T10:25:39.005Z,12.90
2022-11-17T10:28:32.307Z,12.55
2022-11-17T10:31:19.750Z,12.07
2022-11-17T10:34:09.698Z,15.02
2022-11-17T10:36:59.346Z,12.85
2022-11-17T10:39:46.417Z,11.73
2022-11-17T10:42:33.438Z,12.60
2022-11-17T10:45:20.736Z,11.80
2022-11-17T10:48:10.702Z,13.95
2022-11-17T10:51:09.300Z,13.43
2022-11-17T10:54:23.944Z,13.95
2022-11-17T10:57:22.456Z,12.10
2022-11-17T11:00:29.557Z,13.93
2022-11-17T11:03:24.609Z,14.63
2022-11-17T11:06:27.321Z,13.00
2022-11-17T11:09:21.631Z,14.60
2022-11-17T11:12:16.331Z,14.32
2022-11-17T11:15:05.717Z,13.73
2022-11-17T11:17:52.743Z,13.75
2022-11-17T11:21:04.740Z,13.15
2022-11-17T11:24:30.094Z,12.13
2022-11-17T11:28:11.617Z,13.40
2022-11-17T11:31:50.930Z,12.75
2022-11-17T11:35:05.652Z,12.57
2022-11-17T11:38:30.000Z,13.40
2022-11-17T11:45:19.548Z,12.48
2022-11-17T11:48:44.175Z,13.00
2022-11-17T11:51:37.042Z,13.85
2022-11-17T11:54:44.888Z,12.60
2022-11-17T11:57:43.415Z,12.07
2022-11-17T12:00:30.722Z,11.55
2022-11-17T12:03:46.214Z,12.90
2022-11-17T12:06:56.849Z,13.10
2022-11-17T12:09:57.758Z,12.43
2022-11-17T12:12:46.307Z,10.63
2022-11-17T12:15:35.382Z,10.18
2022-11-17T12:18:33.376Z,10.35
2022-11-17T12:21:25.507Z,9.45
2022-11-17T12:24:27.343Z,8.37
2022-11-17T12:27:55.170Z,7.70
2022-11-17T12:31:25.502Z,9.05
2022-11-17T12:34:39.378Z,8.18
2022-11-17T12:37:26.604Z,9.13
2022-11-17T12:41:00.111Z,9.40
2022-11-17T12:43:47.234Z,8.23
2022-11-17T12:46:34.571Z,10.70
2022-11-17T12:49:36.684Z,9.23
2022-11-17T12:52:53.555Z,11.80
2022-11-17T12:56:01.147Z,11.15
2022-11-17T12:59:40.227Z,10.20
2022-11-17T13:02:59.009Z,9.45
2022-11-17T13:06:28.242Z,9.25
2022-11-17T13:09:15.067Z,10.07
2022-11-17T13:12:05.557Z,11.35
2022-11-17T13:14:57.771Z,9.93
2022-11-17T13:17:44.832Z,10.95
2022-11-17T13:20:31.966Z,10.75
2022-11-17T13:23:32.513Z,10.90
2022-11-17T13:26:22.182Z,10.18
2022-11-17T13:29:19.534Z,11.00
2022-11-17T13:32:32.425Z,10.65
2022-11-17T13:35:28.891Z,10.65
2022-11-17T13:38:23.430Z,11.45
2022-11-17T13:41:10.772Z,11.30
2022-11-17T13:43:58.297Z,12.40
2022-11-17T13:46:45.262Z,11.32
2022-11-17T13:49:37.263Z,11.15
2022-11-17T13:52:40.581Z,11.15
2022-11-17T13:55:29.733Z,11.90
2022-11-17T13:58:37.932Z,11.38
2022-11-17T14:01:29.144Z,11.23
2022-11-17T14:04:24.229Z,10.88
2022-11-17T14:07:15.144Z,12.65
2022-11-17T14:10:28.155Z,12.13
2022-11-17T14:13:22.039Z,12.73
2022-11-17T14:16:37.687Z,11.82
2022-11-17T14:19:33.707Z,11.98
2022-11-17T14:22:30.926Z,13.20
2022-11-17T14:25:18.133Z,12.95
2022-11-17T14:28:14.131Z,12.88
2022-11-17T14:31:01.631Z,13.13
2022-11-17T14:33:50.480Z,13.40
2022-11-17T14:36:39.263Z,13.77
2022-11-17T14:39:26.229Z,13.57
2022-11-17T14:42:14.622Z,12.48
2022-11-17T14:45:08.510Z,12.60
2022-11-17T14:47:55.451Z,12.65
2022-11-17T14:50:42.799Z,12.52
2022-11-17T14:53:29.946Z,12.70
2022-11-17T14:56:19.808Z,12.70
2022-11-17T14:59:06.728Z,13.80
2022-11-17T15:01:54.108Z,12.68
2022-11-17T15:04:50.544Z,13.00
2022-11-17T15:07:38.815Z,13.35
2022-11-17T15:10:25.921Z,17.48
2022-11-17T15:13:13.257Z,15.35
2022-11-17T15:16:06.816Z,14.50
2022-11-17T15:18:53.835Z,13.90
2022-11-17T15:21:40.754Z,13.98
2022-11-17T15:24:27.688Z,13.13
2022-11-17T15:27:14.962Z,15.13
2022-11-17T15:30:02.294Z,14.85
2022-11-17T15:32:49.425Z,15.60
2022-11-17T15:35:36.643Z,15.68
2022-11-17T15:38:23.730Z,16.83
2022-11-17T15:41:12.210Z,16.25
2022-11-17T15:43:59.080Z,18.08
2022-11-17T15:46:47.880Z,16.27
2022-11-17T15:49:35.036Z,17.80
2022-11-17T15:52:41.442Z,15.70
2022-11-17T15:55:28.959Z,14.77
2022-11-17T15:58:16.122Z,15.75
2022-11-17T16:01:29.028Z,18.83
2022-11-17T16:04:16.213Z,16.73
2022-11-17T16:07:04.236Z,16.52
2022-11-17T16:09:51.375Z,15.60
2022-11-17T16:12:38.528Z,15.70
2022-11-17T16:15:25.667Z,14.93
2022-11-17T16:18:12.532Z,15.00
2022-11-17T16:21:05.071Z,15.30
2022-11-17T16:23:56.707Z,16.42
2022-11-17T16:26:44.895Z,17.00
2022-11-17T16:29:31.836Z,16.83
2022-11-17T16:32:19.278Z,18.67
2022-11-17T16:35:06.497Z,18.83
2022-11-17T16:37:54.004Z,18.95
2022-11-17T16:40:41.391Z,19.20
2022-11-17T16:43:28.463Z,19.40
2022-11-17T16:46:18.429Z,18.58
2022-11-17T16:49:07.250Z,17.00
2022-11-17T16:51:54.141Z,17.38
2022-11-17T16:54:42.090Z,17.70
2022-11-17T16:57:29.229Z,16.92
2022-11-17T17:00:18.039Z,17.83
2022-11-17T17:03:04.967Z,19.33
2022-11-17T17:05:52.043Z,17.50
2022-11-17T17:08:39.495Z,17.13
2022-11-17T17:11:29.194Z,17.38
2022-11-17T17:14:16.832Z,19.10
2022-11-17T17:17:06.504Z,18.80
2022-11-17T17:19:53.581Z,19.75
2022-11-17T17:22:40.562Z,16.70
2022-11-17T17:25:27.546Z,18.92
2022-11-17T17:28:14.663Z,17.42
2022-11-17T17:31:03.391Z,19.23
2022-11-17T17:33:51.608Z,19.23
2022-11-17T17:36:38.665Z,19.23
2022-11-17T17:39:25.902Z,17.88
2022-11-17T17:42:13.731Z,17.90
2022-11-17T17:45:00.709Z,19.02
2022-11-17T17:47:47.604Z,18.65
2022-11-17T17:50:34.611Z,21.73
2022-11-17T17:53:21.746Z,26.38
2022-11-17T17:56:14.782Z,28.65
2022-11-17T18:01:49.665Z,26.67
2022-11-17T18:04:36.596Z,25.10
2022-11-17T18:07:23.725Z,25.23
2022-11-17T18:10:10.703Z,24.58
2022-11-17T18:12:57.824Z,22.85
2022-11-17T18:15:44.824Z,22.88
2022-11-17T18:18:32.318Z,19.98
2022-11-17T18:21:19.858Z,21.13
2022-11-17T18:24:07.150Z,22.50
2022-11-17T18:26:54.279Z,22.23
2022-11-17T18:29:41.233Z,22.20
2022-11-17T18:32:28.116Z,24.17
2022-11-17T18:35:15.259Z,22.83
2022-11-17T18:38:02.443Z,22.58
2022-11-17T18:40:49.370Z,23.20
2022-11-17T18:43:37.653Z,23.38
2022-11-17T18:46:25.773Z,24.88
2022-11-17T18:49:15.169Z,21.75
2022-11-17T18:52:02.400Z,23.60
2022-11-17T18:54:49.230Z,23.70
2022-11-17T18:57:39.549Z,23.33
2022-11-17T19:00:30.240Z,22.48
2022-11-17T19:03:17.187Z,21.63
2022-11-17T19:06:05.414Z,22.42
2022-11-17T19:08:53.090Z,21.17
2022-11-17T19:11:40.079Z,21.77
2022-11-17T19:14:27.087Z,20.55
2022-11-17T19:17:13.981Z,20.08
2022-11-17T19:20:00.942Z,19.02
2022-11-17T19:22:50.078Z,21.08
2022-11-17T19:25:41.623Z,18.80
2022-11-17T19:28:31.667Z,19.02
2022-11-17T19:31:20.068Z,20.33
2022-11-17T19:34:07.129Z,20.45
2022-11-17T19:36:54.103Z,21.92
2022-11-17T19:39:41.049Z,21.25
2022-11-17T19:42:27.999Z,20.73
2022-11-17T19:45:15.917Z,23.80
2022-11-17T19:48:02.826Z,21.70
2022-11-17T19:50:54.574Z,21.33
2022-11-17T19:53:43.127Z,20.90
2022-11-17T19:56:30.677Z,25.00
2022-11-17T19:59:18.137Z,23.77
2022-11-17T20:02:05.465Z,23.27
2022-11-17T20:04:52.498Z,22.23
2022-11-17T20:07:39.883Z,42.28
2022-11-17T20:10:27.123Z,26.30
2022-11-17T20:13:14.235Z,25.58
2022-11-17T20:16:06.170Z,25.17
2022-11-17T20:18:57.908Z,23.65
2022-11-17T20:21:46.366Z,22.48
2022-11-17T20:24:35.333Z,27.63
2022-11-17T20:27:22.561Z,22.60
2022-11-17T20:30:14.946Z,22.48
2022-11-17T20:33:02.408Z,23.60
2022-11-17T20:35:49.318Z,23.52
2022-11-17T20:38:36.495Z,21.88
2022-11-17T20:41:24.223Z,25.75
2022-11-17T20:44:26.399Z,23.08
2022-11-17T20:47:13.414Z,23.65
2022-11-17T20:50:00.590Z,21.27
2022-11-17T20:52:47.703Z,24.00
2022-11-17T20:55:34.838Z,22.40
2022-11-17T20:58:21.992Z,23.90
2022-11-17T21:01:11.201Z,22.10
2022-11-17T21:03:58.401Z,22.92
2022-11-17T21:06:45.387Z,22.73
2022-11-17T21:09:32.367Z,21.67
2022-11-17T21:12:19.460Z,22.75
2022-11-17T21:15:07.290Z,19.63
2022-11-17T21:18:13.051Z,23.15
2022-11-17T21:21:08.460Z,24.52
2022-11-17T21:23:56.040Z,22.58
2022-11-17T21:26:43.405Z,21.23
2022-11-17T21:29:30.354Z,20.25
2022-11-17T21:32:17.309Z,20.20
2022-11-17T21:35:05.942Z,21.10
2022-11-17T21:37:52.898Z,22.85
2022-11-17T21:40:39.873Z,21.02
2022-11-17T21:43:26.769Z,21.50
2022-11-17T21:46:16.332Z,23.25
2022-11-17T21:49:03.773Z,21.25
2022-11-17T21:51:50.750Z,22.23
2022-11-17T21:54:37.760Z,25.70
2022-11-17T21:57:24.922Z,20.38
2022-11-17T22:00:12.506Z,22.42
2022-11-17T22:02:59.542Z,22.05
2022-11-17T22:05:46.428Z,22.88
2022-11-17T22:08:36.622Z,19.33
2022-11-17T22:11:38.488Z,29.50
2022-11-17T22:14:25.793Z,21.95
2022-11-17T22:17:13.259Z,23.98
2022-11-17T22:20:00.441Z,22.45
2022-11-17T22:22:49.185Z,22.30
2022-11-17T22:25:45.329Z,26.02
2022-11-17T22:28:33.073Z,23.33
2022-11-17T22:31:21.246Z,24.63
2022-11-17T22:34:08.446Z,25.23
2022-11-17T22:36:55.396Z,19.92
2022-11-17T22:39:42.380Z,19.90
2022-11-17T22:42:29.373Z,29.17
2022-11-17T22:45:16.567Z,27.70
2022-11-17T22:48:04.994Z,30.42
2022-11-17T22:50:51.930Z,21.45
2022-11-17T22:53:39.497Z,20.58
2022-11-17T22:56:26.864Z,30.40
2022-11-17T22:59:14.250Z,22.38
2022-11-17T23:02:01.548Z,20.58
2022-11-17T23:04:48.759Z,23.52
2022-11-17T23:07:36.040Z,28.10
2022-11-17T23:10:23.069Z,30.40
2022-11-17T23:13:10.030Z,24.05
2022-11-17T23:15:57.850Z,30.98
2022-11-17T23:18:45.013Z,36.25
2022-11-17T23:21:32.148Z,22.52
2022-11-17T23:24:19.103Z,23.55
2022-11-17T23:27:07.094Z,32.47
2022-11-17T23:29:54.216Z,29.70
2022-11-17T23:32:41.229Z,24.73
2022-11-17T23:35:28.332Z,24.92
2022-11-17T23:38:15.534Z,22.63
2022-11-17T23:41:04.697Z,23.63
2022-11-17T23:43:53.156Z,20.80
2022-11-17T23:46:40.182Z,22.02
2022-11-17T23:49:27.394Z,26.58
2022-11-17T23:52:14.546Z,25.75
2022-11-17T23:55:01.503Z,23.38
2022-11-17T23:57:48.471Z,24.00
